CYFB

Iqaluit Airport

ICAO Code CYFB
IATA Code YFB
Name Iqaluit Airport
Location Iqaluit, Nunavut, CA
Elevation 110 Feet / 33.5 Meters
Latitude 63.75666667
Longitude -68.55611111
METAR CYFB 080700Z 15009KT 15SM -SN OVC005 M01/M03 A3030 RMK ST8 SLP264
Extra information Display Charts and CFS
Display NOTAMS
Runway Length Width Surface Elevation
16 8605 ft 200 ft ASP 110 ft
34 8605 ft 200 ft ASP 71 ft